Time;durP1;ratioP1;P1;durP2;ratioP2;P2;SDS_P1;SDS_P2;PMS_P1;PMS_P2;Temp;Humidity;BMP_temperature;BMP_pressure;BME280_temperature;BME280_humidity;BME280_pressure;Samples;Min_cycle;Max_cycle;Signal;HPM_P1;HPM_P2
2023/09/01 00:00:34;;;;;;;7.20;6.50;;;;;;;15.14;88.64;97794.91;5032860;28;20501;-78
2023/09/01 00:03:01;;;;;;;8.33;5.77;;;;;;;15.19;88.24;97786.84;5032081;28;20472;-78
2023/09/01 00:05:28;;;;;;;9.20;5.87;;;;;;;15.10;88.19;97774.63;5035784;28;20511;-78
2023/09/01 00:07:55;;;;;;;6.90;6.20;;;;;;;15.08;87.79;97774.88;5038005;28;20479;-78
2023/09/01 00:10:22;;;;;;;8.57;6.07;;;;;;;15.36;86.72;97774.13;5032469;28;20463;-78
2023/09/01 00:12:48;;;;;;;8.83;6.00;;;;;;;15.30;86.80;97775.06;5035492;28;21676;-78
2023/09/01 00:15:17;;;;;;;6.17;5.57;;;;;;;15.24;86.90;97778.78;5033038;28;20546;-78
2023/09/01 00:17:44;;;;;;;6.10;5.50;;;;;;;15.45;86.06;97780.88;5043395;28;20988;-78
2023/09/01 00:20:12;;;;;;;7.10;5.50;;;;;;;15.40;85.64;97783.50;5045062;28;20455;-78
2023/09/01 00:22:39;;;;;;;12.70;5.93;;;;;;;15.40;86.21;97778.03;5046453;28;20859;-78
2023/09/01 00:25:06;;;;;;;5.53;5.03;;;;;;;15.45;86.47;97769.13;5034975;28;20455;-78
2023/09/01 00:27:33;;;;;;;5.03;4.63;;;;;;;15.49;85.28;97774.94;5035308;28;20550;-79
2023/09/01 00:30:00;;;;;;;5.67;5.17;;;;;;;15.49;85.92;97781.22;5032556;28;20918;-78
2023/09/01 00:32:28;;;;;;;5.60;5.10;;;;;;;15.46;85.50;97788.00;5034178;28;20510;-79
2023/09/01 00:34:56;;;;;;;5.93;5.13;;;;;;;15.62;86.22;97780.16;5033652;28;20493;-78
2023/09/01 00:37:23;;;;;;;6.03;5.30;;;;;;;15.68;84.99;97781.94;5042235;28;21062;-78
2023/09/01 00:39:50;;;;;;;6.10;5.20;;;;;;;15.57;84.96;97783.63;5041093;28;20459;-78
2023/09/01 00:42:17;;;;;;;5.87;4.30;;;;;;;15.59;84.01;97770.56;5027647;28;20954;-79
2023/09/01 00:44:44;;;;;;;5.47;4.83;;;;;;;15.67;83.63;97772.91;5032009;28;20471;-79
2023/09/01 00:47:13;;;;;;;6.23;4.30;;;;;;;15.66;83.90;97773.16;5045785;28;21424;-79
2023/09/01 00:49:41;;;;;;;6.07;4.53;;;;;;;15.76;83.67;97782.38;5040819;28;20460;-78
2023/09/01 00:52:08;;;;;;;5.10;4.50;;;;;;;15.66;83.55;97773.16;5050947;28;20467;-78
2023/09/01 00:54:35;;;;;;;4.33;3.93;;;;;;;15.66;83.84;97775.88;5035101;28;20452;-78
2023/09/01 00:57:02;;;;;;;4.33;3.93;;;;;;;15.69;83.81;97773.50;5032982;28;21490;-79
2023/09/01 00:59:29;;;;;;;6.10;4.80;;;;;;;15.73;83.93;97766.50;5037360;28;20460;-79
2023/09/01 01:01:56;;;;;;;4.80;3.47;;;;;;;15.65;83.54;97752.41;5035154;28;21833;-78
2023/09/01 01:04:24;;;;;;;4.00;3.70;;;;;;;15.78;83.26;97763.03;5028860;28;20478;-79
2023/09/01 01:06:56;;;;;;;6.50;4.10;;;;;;;15.75;83.32;97768.97;5038041;28;20459;-78
2023/09/01 01:09:29;;;;;;;4.70;3.80;;;;;;;15.81;84.04;97762.56;5036956;28;20514;-79
2023/09/01 01:12:01;;;;;;;4.33;3.93;;;;;;;15.86;82.88;97759.94;5032875;28;21016;-78
2023/09/01 01:14:37;;;;;;;3.80;3.40;;;;;;;15.93;81.50;97763.31;5040065;28;20456;-78
2023/09/01 01:17:05;;;;;;;3.73;3.37;;;;;;;15.78;81.44;97757.59;5044631;28;20454;-78
2023/09/01 01:19:41;;;;;;;3.97;3.20;;;;;;;15.97;81.08;97758.22;5034292;28;20487;-78
2023/09/01 01:22:09;;;;;;;3.50;2.90;;;;;;;15.82;79.53;97763.38;5034539;28;20472;-78
2023/09/01 01:24:37;;;;;;;3.93;2.83;;;;;;;15.83;79.49;97754.13;5035809;28;20468;-78
2023/09/01 01:27:05;;;;;;;3.30;2.90;;;;;;;15.79;78.61;97760.06;5032198;28;20870;-78
2023/09/01 01:29:32;;;;;;;3.27;2.90;;;;;;;15.91;78.57;97768.22;5039780;28;20553;-78
2023/09/01 01:31:59;;;;;;;2.77;2.47;;;;;;;15.95;78.15;97769.38;5039236;28;20495;-78
2023/09/01 01:34:35;;;;;;;5.23;2.67;;;;;;;15.84;78.15;97761.25;5036720;28;20888;-78
2023/09/01 01:37:07;;;;;;;2.70;2.50;;;;;;;15.95;78.30;97755.72;5034918;28;20546;-78
2023/09/01 01:39:35;;;;;;;3.73;2.20;;;;;;;16.01;77.73;97753.94;5030572;28;20487;-78
2023/09/01 01:42:08;;;;;;;2.50;2.30;;;;;;;15.95;77.86;97753.00;5045164;28;20487;-78
2023/09/01 01:44:37;;;;;;;3.17;2.87;;;;;;;15.94;78.12;97758.69;5035042;28;20455;-78
2023/09/01 01:47:06;;;;;;;3.77;2.50;;;;;;;16.02;77.90;97758.31;5038069;28;20513;-78
2023/09/01 01:49:33;;;;;;;2.60;2.27;;;;;;;15.96;78.38;97754.66;5034175;28;20482;-78
2023/09/01 01:52:01;;;;;;;3.83;2.30;;;;;;;16.04;78.26;97750.72;5036989;28;21003;-78
2023/09/01 01:54:28;;;;;;;3.27;2.50;;;;;;;16.03;78.05;97747.16;5034624;28;20463;-77
2023/09/01 01:56:55;;;;;;;3.80;2.40;;;;;;;16.09;78.29;97748.91;5040787;28;20615;-78
2023/09/01 01:59:23;;;;;;;2.83;2.47;;;;;;;16.00;78.76;97750.38;5034190;28;20454;-78
2023/09/01 02:01:50;;;;;;;2.63;2.43;;;;;;;15.95;78.81;97753.00;5037496;28;20505;-78
2023/09/01 02:04:17;;;;;;;3.43;2.57;;;;;;;15.95;79.18;97752.16;5039127;28;21085;-78
2023/09/01 02:06:44;;;;;;;3.43;2.40;;;;;;;16.08;79.08;97746.44;5042084;28;20976;-77
2023/09/01 02:09:11;;;;;;;3.60;2.30;;;;;;;16.12;78.83;97742.97;5030847;28;20594;-77
2023/09/01 02:11:38;;;;;;;2.27;2.07;;;;;;;16.30;78.47;97749.28;5043653;28;20455;-78
2023/09/01 02:14:05;;;;;;;2.93;2.30;;;;;;;16.11;79.06;97752.22;5034664;28;20951;-78
2023/09/01 02:16:33;;;;;;;2.33;2.13;;;;;;;16.05;79.65;97753.19;5040811;28;20529;-77
2023/09/01 02:19:00;;;;;;;2.90;2.40;;;;;;;16.02;80.06;97750.97;5044832;28;20479;-77
2023/09/01 02:21:27;;;;;;;3.50;2.30;;;;;;;16.13;79.48;97755.53;5035164;28;20530;-77
2023/09/01 02:23:55;;;;;;;2.47;2.37;;;;;;;16.10;79.97;97750.56;5041741;28;20589;-77
2023/09/01 02:26:22;;;;;;;3.50;1.90;;;;;;;16.05;80.27;97750.47;5042700;28;20459;-77
2023/09/01 02:28:50;;;;;;;3.20;2.37;;;;;;;16.16;79.87;97758.88;5043849;28;20468;-77
2023/09/01 02:31:17;;;;;;;2.87;2.20;;;;;;;16.29;79.75;97758.53;5038703;28;21151;-76
2023/09/01 02:33:47;;;;;;;3.53;2.13;;;;;;;16.29;79.60;97758.53;5039890;28;20481;-76
2023/09/01 02:36:28;;;;;;;2.47;2.23;;;;;;;16.21;79.68;97762.53;5042713;28;20483;-77
2023/09/01 02:38:55;;;;;;;2.70;2.50;;;;;;;16.17;80.00;97763.25;5038875;28;21300;-77
2023/09/01 02:41:22;;;;;;;2.10;2.00;;;;;;;16.21;79.97;97756.22;5038066;28;20978;-76
2023/09/01 02:43:49;;;;;;;2.50;2.00;;;;;;;16.33;79.73;97765.16;5040308;28;20523;-77
2023/09/01 02:46:16;;;;;;;2.70;2.33;;;;;;;16.43;79.35;97765.38;5042827;28;20972;-77
2023/09/01 02:48:43;;;;;;;3.00;2.27;;;;;;;16.40;79.12;97776.78;5041491;28;21027;-77
2023/09/01 02:51:11;;;;;;;2.47;2.27;;;;;;;16.44;79.37;97761.56;5040186;28;20492;-77
2023/09/01 02:53:39;;;;;;;4.20;2.50;;;;;;;16.55;79.06;97765.31;5033002;28;20548;-76
2023/09/01 02:56:06;;;;;;;3.33;2.20;;;;;;;16.54;78.71;97763.66;5039380;28;20459;-76
2023/09/01 02:58:32;;;;;;;2.50;2.00;;;;;;;16.48;78.65;97765.47;5036084;28;20928;-76
2023/09/01 03:00:59;;;;;;;2.60;2.00;;;;;;;16.43;78.70;97760.72;5035605;28;20467;-76
2023/09/01 03:03:26;;;;;;;3.10;2.60;;;;;;;16.37;78.74;97758.97;5034965;28;20503;-76
2023/09/01 03:05:53;;;;;;;2.43;1.97;;;;;;;16.46;79.02;97764.88;5039109;28;20465;-76
2023/09/01 03:08:22;;;;;;;2.67;2.00;;;;;;;16.44;78.86;97758.81;5036942;28;20480;-77
2023/09/01 03:10:48;;;;;;;5.47;1.97;;;;;;;16.45;79.01;97776.88;5035249;28;20510;-77
2023/09/01 03:13:15;;;;;;;2.87;2.03;;;;;;;16.46;78.92;97764.88;5038281;28;21025;-77
2023/09/01 03:15:42;;;;;;;3.97;2.03;;;;;;;16.56;78.72;97769.69;5041304;28;20459;-77
2023/09/01 03:18:10;;;;;;;3.50;2.20;;;;;;;16.66;78.29;97762.50;5041813;28;20570;-77
2023/09/01 03:20:37;;;;;;;2.23;1.90;;;;;;;16.58;78.70;97767.50;5041100;28;20453;-76
2023/09/01 03:23:04;;;;;;;2.50;1.90;;;;;;;16.58;78.67;97762.88;5035322;28;20582;-76
2023/09/01 03:25:32;;;;;;;2.53;1.70;;;;;;;16.68;78.51;97771.28;5034394;28;20857;-77
2023/09/01 03:27:59;;;;;;;2.00;1.73;;;;;;;16.44;79.28;97776.03;5035652;28;20471;-77
2023/09/01 03:30:26;;;;;;;2.13;1.93;;;;;;;16.63;78.80;97765.69;5036310;28;20902;-77
2023/09/01 03:32:53;;;;;;;2.40;1.80;;;;;;;16.67;78.68;97760.59;5032560;28;20546;-77
2023/09/01 03:35:19;;;;;;;2.07;1.97;;;;;;;16.59;78.86;97759.06;5036608;28;20505;-77
2023/09/01 03:37:46;;;;;;;3.60;2.27;;;;;;;16.67;78.74;97772.38;5041288;28;20567;-78
2023/09/01 03:40:14;;;;;;;3.03;2.07;;;;;;;16.61;78.89;97756.91;5033230;28;20483;-77
2023/09/01 03:42:42;;;;;;;3.07;1.93;;;;;;;16.66;79.01;97765.25;5032828;28;21002;-77
2023/09/01 03:45:10;;;;;;;2.77;2.00;;;;;;;16.57;79.45;97771.34;5034130;28;20948;-77
2023/09/01 03:47:36;;;;;;;2.17;1.87;;;;;;;16.60;79.12;97777.13;5038499;28;20503;-77
2023/09/01 03:50:03;;;;;;;2.20;2.00;;;;;;;16.64;79.08;97772.84;5033084;28;20523;-77
2023/09/01 03:52:30;;;;;;;2.03;1.80;;;;;;;16.54;79.42;97766.38;5034658;28;20457;-77
2023/09/01 03:54:58;;;;;;;1.90;1.80;;;;;;;16.59;79.38;97772.72;5036314;28;20537;-78
2023/09/01 03:57:24;;;;;;;2.70;1.77;;;;;;;16.54;79.48;97764.47;5035861;28;20475;-77
2023/09/01 03:59:53;;;;;;;2.00;1.90;;;;;;;16.43;79.82;97765.38;5037710;28;20498;-76
2023/09/01 04:02:20;;;;;;;4.23;2.10;;;;;;;16.43;79.82;97762.63;5035142;28;20570;-73
2023/09/01 04:04:47;;;;;;;3.43;2.13;;;;;;;16.49;79.68;97761.66;5030976;28;20479;-75
2023/09/01 04:07:14;;;;;;;1.90;1.80;;;;;;;16.42;79.85;97756.34;5032411;28;20538;-75
2023/09/01 04:09:41;;;;;;;2.80;1.90;;;;;;;16.38;79.92;97768.00;5039806;28;20463;-73
2023/09/01 04:12:08;;;;;;;2.67;1.80;;;;;;;16.35;80.11;97763.03;5030237;28;20481;-69
2023/09/01 04:14:35;;;;;;;3.27;1.80;;;;;;;16.30;80.53;97776.59;5041631;28;20463;-69
2023/09/01 04:17:04;;;;;;;1.93;1.83;;;;;;;16.36;80.28;97772.88;5035288;28;21207;-70
2023/09/01 04:19:31;;;;;;;1.93;1.83;;;;;;;16.22;80.65;97782.47;5030278;28;20447;-77
2023/09/01 04:21:58;;;;;;;2.10;1.90;;;;;;;16.23;80.69;97776.75;5028053;28;20935;-77
2023/09/01 04:24:24;;;;;;;2.97;2.10;;;;;;;16.23;80.72;97776.75;5031239;28;20987;-75
2023/09/01 04:26:51;;;;;;;3.03;1.67;;;;;;;16.27;80.58;97768.88;5033071;28;20506;-76
2023/09/01 04:29:18;;;;;;;2.60;2.10;;;;;;;16.27;80.86;97777.06;5036193;28;20455;-75
2023/09/01 04:31:45;;;;;;;2.07;1.70;;;;;;;16.24;81.01;97785.78;5037802;28;20831;-76
2023/09/01 04:34:14;;;;;;;2.13;1.80;;;;;;;16.31;80.70;97768.16;5037286;28;20459;-76
2023/09/01 04:36:41;;;;;;;2.50;2.03;;;;;;;16.24;80.83;97772.13;5038330;28;20483;-79
2023/09/01 04:39:09;;;;;;;2.33;1.83;;;;;;;16.27;81.16;97777.06;5032880;28;20459;-75
2023/09/01 04:41:36;;;;;;;2.73;1.83;;;;;;;16.31;80.92;97767.31;5028772;28;20456;-76
2023/09/01 04:44:03;;;;;;;2.30;2.03;;;;;;;16.19;80.96;97770.13;5033245;28;20487;-75
2023/09/01 04:46:30;;;;;;;2.43;1.83;;;;;;;16.35;80.56;97773.94;5032329;28;20492;-75
2023/09/01 04:48:57;;;;;;;2.07;1.60;;;;;;;16.27;80.86;97772.44;5047012;28;20542;-74
2023/09/01 04:51:26;;;;;;;2.23;2.03;;;;;;;16.31;80.79;97773.59;5031007;28;20967;-74
2023/09/01 04:53:52;;;;;;;2.10;1.60;;;;;;;16.43;80.19;97779.03;5040893;28;20447;-74
2023/09/01 04:56:19;;;;;;;2.23;2.00;;;;;;;16.38;80.27;97776.19;5032025;28;20484;-75
2023/09/01 04:58:46;;;;;;;2.10;1.87;;;;;;;16.36;80.24;97781.06;5047726;28;20538;-74
2023/09/01 05:01:13;;;;;;;2.07;1.87;;;;;;;16.49;80.45;97783.50;5029389;28;20463;-74
2023/09/01 05:03:40;;;;;;;6.27;2.03;;;;;;;16.52;80.13;97793.13;5031922;28;20493;-73
2023/09/01 05:06:10;;;;;;;1.60;1.47;;;;;;;16.52;80.24;97791.22;5043541;28;20476;-74
2023/09/01 05:08:38;;;;;;;1.83;1.73;;;;;;;16.56;80.50;97786.91;5035785;28;20930;-74
2023/09/01 05:11:05;;;;;;;2.50;2.00;;;;;;;16.62;80.44;97791.38;5027312;28;20526;-74
2023/09/01 05:13:32;;;;;;;2.23;1.90;;;;;;;16.69;79.99;97786.63;5030336;28;20554;-74
2023/09/01 05:15:59;;;;;;;3.73;1.93;;;;;;;16.72;79.66;97786.13;5041805;28;20456;-76
2023/09/01 05:18:25;;;;;;;2.23;1.90;;;;;;;16.75;79.85;97795.72;5038665;28;20565;-77
2023/09/01 05:20:52;;;;;;;2.37;1.90;;;;;;;16.83;79.61;97803.53;5024260;28;20468;-76
2023/09/01 05:23:19;;;;;;;1.90;1.60;;;;;;;16.89;79.38;97807.19;5028529;28;20503;-76
2023/09/01 05:25:53;;;;;;;2.60;1.73;;;;;;;17.02;78.77;97804.09;5032176;28;20456;-76
2023/09/01 05:28:20;;;;;;;1.90;1.63;;;;;;;17.01;79.25;97806.00;5036567;28;20474;-77
2023/09/01 05:30:47;;;;;;;1.73;1.63;;;;;;;16.87;80.04;97810.16;5031229;28;20483;-77
2023/09/01 05:33:13;;;;;;;2.70;1.80;;;;;;;16.81;80.76;97799.38;5024879;28;20460;-77
2023/09/01 05:35:40;;;;;;;2.53;2.03;;;;;;;16.69;81.32;97811.22;5030401;28;20500;-77
2023/09/01 05:38:09;;;;;;;2.73;2.00;;;;;;;16.70;81.52;97796.47;5041649;28;20502;-77
2023/09/01 05:40:35;;;;;;;4.20;1.80;;;;;;;16.70;81.38;97804.66;5036130;28;20546;-77
2023/09/01 05:43:04;;;;;;;3.80;2.20;;;;;;;16.61;82.40;97813.47;5046460;28;20569;-77
2023/09/01 05:45:31;;;;;;;2.20;2.00;;;;;;;16.49;82.90;97815.47;5043753;28;20535;-79
2023/09/01 05:47:58;;;;;;;2.80;2.47;;;;;;;16.39;84.40;97818.81;5033619;28;21059;-79
2023/09/01 05:50:25;;;;;;;3.73;2.50;;;;;;;16.27;85.27;97821.59;5030124;28;20838;-79
2023/09/01 05:52:51;;;;;;;3.63;2.40;;;;;;;16.10;86.15;97827.03;5028747;28;20466;-84
2023/09/01 05:55:18;;;;;;;2.30;2.10;;;;;;;15.98;88.32;97837.13;5034423;28;20513;-84
2023/09/01 05:57:45;;;;;;;3.00;2.80;;;;;;;15.93;88.09;97837.03;5037364;28;21049;-83
2023/09/01 06:00:14;;;;;;;3.03;2.47;;;;;;;15.78;89.09;97839.44;5044097;28;20479;-84
2023/09/01 06:02:41;;;;;;;3.60;2.73;;;;;;;15.80;90.08;97837.31;5042046;28;20797;-88
2023/09/01 06:05:08;;;;;;;5.27;3.33;;;;;;;15.76;90.83;97847.88;5042113;28;20471;-83
2023/09/01 06:07:37;;;;;;;4.30;2.80;;;;;;;15.74;92.17;97846.44;5035133;28;21006;-83
2023/09/01 06:10:04;;;;;;;3.17;2.40;;;;;;;15.84;91.32;97852.16;5043596;28;21091;-82
2023/09/01 06:12:31;;;;;;;2.63;2.43;;;;;;;15.90;91.49;97847.63;5038005;28;20467;-84
2023/09/01 06:14:58;;;;;;;3.50;2.60;;;;;;;15.87;91.94;97853.56;5040188;28;20554;-85
2023/09/01 06:17:26;;;;;;;3.13;2.83;;;;;;;15.90;92.63;97861.28;5043850;28;21002;-78
2023/09/01 06:19:53;;;;;;;4.17;2.70;;;;;;;15.93;92.54;97864.31;5039813;28;20456;-78
2023/09/01 06:22:21;;;;;;;4.00;3.00;;;;;;;15.78;93.46;97861.28;5034050;28;20473;-85
2023/09/01 06:24:48;;;;;;;2.47;2.37;;;;;;;15.64;94.13;97876.22;5041099;28;20498;-89
2023/09/01 06:27:15;;;;;;;3.33;2.47;;;;;;;15.52;94.58;97873.50;5035517;28;20480;-88
2023/09/01 06:29:42;;;;;;;3.03;2.33;;;;;;;15.52;95.25;97881.69;5029765;28;20463;-89
2023/09/01 06:32:11;;;;;;;2.70;2.50;;;;;;;15.45;95.33;97881.81;5038195;28;20969;-89
2023/09/01 06:34:40;;;;;;;3.00;2.70;;;;;;;15.38;95.99;97883.81;5036750;28;20464;-87
2023/09/01 06:37:06;;;;;;;3.43;3.13;;;;;;;15.38;96.51;97883.81;5031084;28;20874;-89
2023/09/01 06:39:34;;;;;;;2.77;2.57;;;;;;;15.28;97.00;97880.81;5041117;28;20772;-89
2023/09/01 06:42:01;;;;;;;3.20;2.77;;;;;;;15.39;96.86;97885.47;5044129;28;20549;-90
2023/09/01 06:44:27;;;;;;;3.43;2.90;;;;;;;15.45;97.10;97884.53;5041786;28;20549;-90
2023/09/01 06:46:54;;;;;;;3.27;2.97;;;;;;;15.45;97.02;97876.34;5042326;28;20478;-89
2023/09/01 06:49:21;;;;;;;5.27;2.90;;;;;;;15.63;96.99;97880.03;5038774;28;20456;-86
2023/09/01 06:51:49;;;;;;;3.70;3.00;;;;;;;15.65;96.77;97872.44;5030285;28;20451;-87
2023/09/01 06:54:16;;;;;;;3.73;3.33;;;;;;;15.66;96.85;97880.38;5039920;28;20553;-87
2023/09/01 06:56:43;;;;;;;3.10;2.90;;;;;;;15.79;96.54;97874.69;5040580;28;20513;-86
2023/09/01 06:59:10;;;;;;;3.63;3.33;;;;;;;15.86;96.60;97869.09;5026224;28;20443;-86
2023/09/01 07:01:37;;;;;;;3.30;3.00;;;;;;;15.93;96.11;97875.25;5036173;28;21257;-86
2023/09/01 07:04:05;;;;;;;3.67;3.37;;;;;;;15.93;96.52;97880.69;5044828;28;20544;-85
2023/09/01 07:06:32;;;;;;;2.77;2.63;;;;;;;16.10;96.41;97881.63;5040672;28;20511;-87
2023/09/01 07:09:00;;;;;;;2.90;2.70;;;;;;;16.17;95.89;97886.97;5043872;28;20458;-86
2023/09/01 07:11:27;;;;;;;3.10;2.90;;;;;;;16.25;96.14;97877.53;5036230;28;20464;-86
2023/09/01 07:13:54;;;;;;;3.20;2.93;;;;;;;16.32;96.06;97883.69;5035221;28;20463;-87
2023/09/01 07:16:21;;;;;;;5.40;3.23;;;;;;;16.35;95.47;97888.66;5039959;28;21144;-91
2023/09/01 07:18:48;;;;;;;3.73;2.93;;;;;;;16.28;95.88;97879.78;5036389;28;20546;-86
2023/09/01 07:21:14;;;;;;;3.20;2.90;;;;;;;16.30;96.56;97883.94;5036890;28;20447;-86
2023/09/01 07:23:41;;;;;;;3.90;3.60;;;;;;;16.36;96.65;97882.13;5037077;28;20566;-84
2023/09/01 07:26:11;;;;;;;3.47;3.17;;;;;;;16.32;96.56;97889.16;5031401;28;20552;-91
2023/09/01 07:28:38;;;;;;;5.97;4.40;;;;;;;16.16;97.09;97877.09;5049501;28;20847;-90
2023/09/01 07:31:10;;;;;;;4.83;3.73;;;;;;;16.24;97.68;97870.44;5049149;28;20454;-90
2023/09/01 07:33:41;;;;;;;5.03;4.00;;;;;;;16.09;97.78;97870.94;5043344;28;20963;-89
2023/09/01 07:36:09;;;;;;;4.57;4.17;;;;;;;16.09;98.29;97868.22;5044212;28;20482;-89
2023/09/01 07:38:36;;;;;;;4.57;3.63;;;;;;;16.13;98.26;97870.22;5038995;28;20534;-87
2023/09/01 07:41:04;;;;;;;4.30;3.90;;;;;;;16.16;98.56;97874.38;5027140;28;20464;-87
2023/09/01 07:43:32;;;;;;;4.30;4.00;;;;;;;16.33;98.53;97875.25;5028865;28;21205;-86
2023/09/01 07:45:59;;;;;;;4.60;4.10;;;;;;;16.52;98.22;97877.81;5023882;28;21076;-85
2023/09/01 07:48:26;;;;;;;4.23;3.57;;;;;;;16.66;97.77;97887.38;5028698;28;20574;-85
2023/09/01 07:50:53;;;;;;;3.10;2.60;;;;;;;16.76;97.73;97884.84;5031431;28;20463;-86
2023/09/01 07:53:20;;;;;;;2.70;2.50;;;;;;;16.85;96.60;97891.59;5035884;28;20554;-83
2023/09/01 07:55:47;;;;;;;2.63;2.43;;;;;;;16.94;97.30;97897.47;5028096;28;20460;-85
2023/09/01 07:58:14;;;;;;;2.17;2.00;;;;;;;17.08;96.39;97904.28;5032605;28;20462;-85
2023/09/01 08:00:42;;;;;;;3.70;2.67;;;;;;;17.02;96.68;97899.78;5038028;28;21299;-85
2023/09/01 08:03:11;;;;;;;2.23;2.03;;;;;;;16.91;96.61;97897.94;5033849;28;20465;-85
2023/09/01 08:05:38;;;;;;;4.50;2.60;;;;;;;16.99;96.02;97894.81;5033702;28;20486;-85
2023/09/01 08:08:06;;;;;;;3.13;2.83;;;;;;;17.12;96.22;97910.94;5030429;28;20540;-85
2023/09/01 08:10:33;;;;;;;3.80;3.43;;;;;;;17.06;96.42;97907.25;5035165;28;20549;-84
2023/09/01 08:13:00;;;;;;;3.77;3.33;;;;;;;17.20;96.38;97913.25;5025817;28;20984;-85
2023/09/01 08:15:27;;;;;;;4.53;4.10;;;;;;;17.22;96.41;97916.53;5020822;28;20471;-85
2023/09/01 08:17:55;;;;;;;4.60;3.60;;;;;;;17.44;95.54;97914.75;5035908;28;20455;-84
2023/09/01 08:20:22;;;;;;;3.20;3.00;;;;;;;17.49;95.51;97922.22;5026027;28;20459;-84
2023/09/01 08:22:49;;;;;;;3.80;2.73;;;;;;;17.54;94.93;97913.25;5006917;28;20647;-83
2023/09/01 08:25:16;;;;;;;3.23;2.67;;;;;;;18.04;94.10;97919.50;5018882;28;20610;-84
2023/09/01 08:27:42;;;;;;;3.17;2.40;;;;;;;18.55;92.66;97920.13;5008631;28;20484;-77
2023/09/01 08:30:10;;;;;;;3.83;2.60;;;;;;;18.76;90.47;97916.59;5006208;28;20849;-86
2023/09/01 08:32:40;;;;;;;3.00;2.77;;;;;;;18.88;89.40;97923.81;5011554;28;21223;-81
2023/09/01 08:35:11;;;;;;;2.13;2.03;;;;;;;19.10;87.75;97917.22;5010775;28;20466;-84
2023/09/01 08:37:38;;;;;;;2.83;2.27;;;;;;;19.62;85.68;97913.00;5020668;28;20579;-86
2023/09/01 08:40:07;;;;;;;2.53;2.33;;;;;;;19.83;83.31;97927.69;5003513;28;20468;-80
2023/09/01 08:42:34;;;;;;;2.47;2.27;;;;;;;19.86;83.86;97919.75;5001000;28;20459;-77
2023/09/01 08:45:01;;;;;;;2.90;1.90;;;;;;;19.46;84.13;97929.34;5008518;28;20484;-77
2023/09/01 08:47:33;;;;;;;3.00;2.30;;;;;;;19.23;85.05;97932.41;5008501;28;20510;-77
2023/09/01 08:50:00;;;;;;;2.37;2.13;;;;;;;18.99;86.35;97931.06;5010798;28;20484;-77
2023/09/01 08:52:29;;;;;;;2.70;2.50;;;;;;;19.21;86.86;97929.09;5012494;28;20542;-77
2023/09/01 08:54:56;;;;;;;3.73;1.93;;;;;;;19.28;86.11;97932.44;5007791;28;20546;-77
2023/09/01 08:57:22;;;;;;;2.60;2.27;;;;;;;19.51;85.38;97922.22;5017918;28;20472;-77
2023/09/01 08:59:49;;;;;;;2.27;2.07;;;;;;;19.75;84.56;97918.03;5018498;28;20464;-77
2023/09/01 09:02:16;;;;;;;2.23;2.10;;;;;;;20.20;83.65;97924.88;5009049;28;20457;-77
2023/09/01 09:04:43;;;;;;;2.87;1.93;;;;;;;21.08;80.89;97920.28;5007838;28;20538;-77
2023/09/01 09:07:15;;;;;;;3.40;2.17;;;;;;;21.69;74.30;97923.09;5003948;28;20495;-79
2023/09/01 09:10:06;;;;;;;2.03;1.47;;;;;;;21.52;75.07;97917.03;5002315;28;20464;-77
2023/09/01 09:12:37;;;;;;;1.70;1.47;;;;;;;21.92;72.29;97903.22;5013050;28;20468;-77
2023/09/01 09:15:05;;;;;;;1.70;1.60;;;;;;;22.32;73.37;97898.75;5012089;28;20546;-75
2023/09/01 09:17:40;;;;;;;1.60;1.50;;;;;;;22.06;71.48;97907.09;5009522;28;20485;-75
2023/09/01 09:20:08;;;;;;;1.40;1.20;;;;;;;22.47;71.24;97912.47;5014776;28;20459;-74
2023/09/01 09:22:49;;;;;;;1.67;1.20;;;;;;;22.25;71.51;97921.09;5010685;28;20812;-74
2023/09/01 09:25:25;;;;;;;1.40;1.30;;;;;;;21.60;73.15;97888.94;5015922;28;20496;-76
2023/09/01 09:27:53;;;;;;;1.50;1.30;;;;;;;21.58;73.84;97914.00;5012218;28;20960;-77
2023/09/01 09:30:20;;;;;;;1.87;1.40;;;;;;;21.24;74.44;97910.16;5010037;28;20455;-76
2023/09/01 09:32:48;;;;;;;1.70;1.47;;;;;;;21.23;75.25;97912.06;5009091;28;20982;-77
2023/09/01 09:35:16;;;;;;;1.70;1.27;;;;;;;21.00;76.71;97915.31;5007085;28;20452;-76
2023/09/01 09:37:43;;;;;;;1.30;1.20;;;;;;;20.74;77.77;97915.28;5012046;28;20464;-76
2023/09/01 09:40:12;;;;;;;2.47;1.23;;;;;;;20.79;78.04;97918.00;5006974;28;20523;-76
2023/09/01 09:42:41;;;;;;;2.80;1.57;;;;;;;20.80;77.76;97921.59;5002834;28;20449;-79
2023/09/01 09:45:23;;;;;;;0.80;0.80;;;;;;;20.86;75.05;97923.25;5010682;28;20480;-75
2023/09/01 09:47:50;;;;;;;0.63;0.60;;;;;;;20.60;73.58;97919.59;5009769;28;20448;-75
2023/09/01 09:50:18;;;;;;;0.90;0.80;;;;;;;20.44;74.45;97926.16;5011196;28;20475;-75
2023/09/01 09:52:49;;;;;;;1.00;0.90;;;;;;;20.35;74.65;97933.22;5012291;28;20453;-75
2023/09/01 09:55:21;;;;;;;0.70;0.70;;;;;;;20.36;75.49;97929.38;5017908;28;20895;-75
2023/09/01 09:57:50;;;;;;;1.10;1.00;;;;;;;20.24;75.31;97935.09;5025769;28;20987;-75
2023/09/01 10:00:20;;;;;;;0.87;0.87;;;;;;;20.03;76.01;97934.16;5017029;28;20542;-75
2023/09/01 10:02:50;;;;;;;0.90;0.80;;;;;;;19.96;77.13;97930.81;5017637;28;20497;-75
2023/09/01 10:05:18;;;;;;;0.80;0.80;;;;;;;19.92;77.12;97935.19;5010102;28;20596;-75
2023/09/01 10:07:45;;;;;;;1.10;0.90;;;;;;;19.72;77.85;97946.03;5020527;28;20952;-75
2023/09/01 10:10:12;;;;;;;1.10;1.00;;;;;;;19.48;76.86;97939.22;5014182;28;20454;-75
2023/09/01 10:12:39;;;;;;;1.40;0.70;;;;;;;19.48;76.95;97933.72;5010264;28;20459;-75
2023/09/01 10:15:10;;;;;;;1.50;0.80;;;;;;;19.46;79.33;97940.31;5013930;28;20984;-76
2023/09/01 10:17:37;;;;;;;1.20;0.90;;;;;;;19.28;78.37;97943.44;5009798;28;20457;-76
2023/09/01 10:20:26;;;;;;;1.87;1.20;;;;;;;19.14;80.21;97944.97;5298049;23;20740;-77
2023/09/01 10:22:53;;;;;;;1.47;1.10;;;;;;;19.12;83.07;97941.66;5001610;28;20473;-78
2023/09/01 10:25:20;;;;;;;1.47;1.20;;;;;;;19.09;82.88;97947.66;5009571;28;20495;-78
2023/09/01 10:28:05;;;;;;;1.00;0.90;;;;;;;19.10;81.17;97939.16;5001004;28;20483;-78
2023/09/01 10:30:35;;;;;;;1.10;1.00;;;;;;;18.82;82.19;97942.16;5001279;28;20482;-78
2023/09/01 10:33:12;;;;;;;1.03;0.93;;;;;;;18.99;82.50;97939.31;5002194;28;20457;-77
2023/09/01 10:35:42;;;;;;;1.30;1.20;;;;;;;19.24;83.92;97934.06;5007168;28;20544;-77
2023/09/01 10:38:09;;;;;;;1.20;1.10;;;;;;;19.44;82.25;97934.25;5006224;28;21012;-76
2023/09/01 10:40:40;;;;;;;1.43;1.17;;;;;;;19.64;81.33;97932.78;5007209;28;20520;-78
2023/09/01 10:43:07;;;;;;;1.67;1.57;;;;;;;19.52;81.47;97929.38;5005845;28;20493;-77
2023/09/01 10:45:36;;;;;;;2.00;1.20;;;;;;;19.58;82.44;97926.41;5006918;28;20582;-77
2023/09/01 10:48:04;;;;;;;1.47;1.30;;;;;;;19.73;81.57;97914.72;5007294;28;20461;-78
2023/09/01 10:50:34;;;;;;;1.63;1.00;;;;;;;19.70;79.70;97920.75;4998769;28;20478;-76
2023/09/01 10:53:29;;;;;;;1.70;1.30;;;;;;;19.89;79.13;97921.97;5004862;28;20472;-78
2023/09/01 10:56:06;;;;;;;1.53;1.43;;;;;;;19.92;77.60;97917.88;4999978;28;20467;-77
2023/09/01 10:58:38;;;;;;;2.60;1.37;;;;;;;19.94;77.67;97915.69;4989674;28;20458;-76
2023/09/01 11:01:30;;;;;;;1.53;1.10;;;;;;;20.09;76.40;97924.84;5005422;28;20490;-78
2023/09/01 11:04:38;;;;;;;2.00;1.37;;;;;;;20.29;76.38;97917.78;5001514;28;20463;-77
2023/09/01 11:07:10;;;;;;;1.30;1.10;;;;;;;20.55;75.74;97922.34;4989232;28;20453;-86
2023/09/01 11:10:01;;;;;;;1.70;1.30;;;;;;;20.63;74.80;97926.50;5003375;28;20563;-91
2023/09/01 11:12:31;;;;;;;1.30;1.20;;;;;;;20.86;73.79;97930.69;5002557;28;20504;-84
2023/09/01 11:15:00;;;;;;;1.53;1.43;;;;;;;21.19;73.24;97924.69;5008338;28;20535;-88
2023/09/01 11:17:49;;;;;;;1.30;1.20;;;;;;;21.52;71.04;97922.53;5003979;28;20844;-86
2023/09/01 11:20:19;;;;;;;1.30;1.20;;;;;;;21.52;70.91;97909.59;5007550;28;20568;-85
2023/09/01 11:22:47;;;;;;;2.90;1.50;;;;;;;21.88;69.67;97918.66;5000945;28;20472;-87
2023/09/01 11:25:16;;;;;;;1.80;1.40;;;;;;;22.12;67.66;97919.75;5006698;28;20559;-83
2023/09/01 11:27:44;;;;;;;1.60;1.50;;;;;;;22.34;67.23;97915.84;4997277;28;20967;-83
2023/09/01 11:30:12;;;;;;;1.47;1.37;;;;;;;22.43;64.36;97912.19;4997506;28;20576;-83
2023/09/01 11:32:38;;;;;;;2.00;1.50;;;;;;;22.87;64.25;97914.22;5001767;28;20461;-84
2023/09/01 11:35:06;;;;;;;2.17;1.30;;;;;;;22.92;62.14;97910.63;4997524;28;20921;-83
2023/09/01 11:37:40;;;;;;;2.40;1.40;;;;;;;23.53;60.14;97910.22;5001760;28;20968;-83
2023/09/01 11:40:09;;;;;;;1.37;1.27;;;;;;;23.87;60.57;97902.72;5005866;28;20476;-85